** WINDWAARNEMINGEN GEBEUREN SINDS 9-01-2018 OP 9 - 10M HOOGTE**
** ONZE WEBSITE WORDT BINNENKORT VOLLEDIG VERNIEUWD!! U KAN DEZE AL HIER AL TESTEN **
Het weer levert geen direct gevaar op.    Er zijn geen waarschuwingen afgegeven.

Weercam te Izegem Meer informatie Weercam te Izegem


Lokaal brand risico:
FWI


Regionaal brand risico: Meer informatie



METAR rapporten vliegvelden

   
EBOS - Oostende Airport, Belgium
Afstand tot: NW 39 km
Gewijzigd: 23-02-2018 04:50
Helder  
Helder  
   Wind: ONO 18.5 km/h
Wind: ONO 18.5 km/h
Temperatuur: -2°C
Voelt als: -8°C
Dauwpunt: -5°C
Vochtigheid: 80%
Barometer: 1022 hPa
Zicht: meer dan 10 km
Bewolking: Helder ft
EBOS 230350Z 07010KT CAVOK M02/M05 Q1022 NOSIG
LFQQ - Lille/Lesquin, France
Afstand tot: Z 40 km
Gewijzigd: 23-02-2018 05:00
Helder  
Helder  
   Wind: NO 20.4 km/h
Wind: NO 20.4 km/h
Temperatuur: -2°C
Voelt als: -8°C
Dauwpunt: -6°C
Vochtigheid: 74%
Barometer: 1020 hPa
Zicht: meer dan 10 km
Bewolking: Helder ft
LFQQ 230400Z AUTO 04011KT CAVOK M02/M06 Q1020 TEMPO 4000 BR
EBFN - Koksijde (bel-Af, Belgium
Afstand tot: WNW 43 km
Gewijzigd: 23-02-2018 04:55
Helder  
Helder  
   Wind: ONO 14.8 km/h
Wind: ONO 14.8 km/h
Temperatuur: -2°C
Voelt als: -7°C
Dauwpunt: -3°C
Vochtigheid: 93%
Barometer: 1022 hPa
Bewolking: Clear
Zicht: 9 km
Bewolking: Helder ft
EBFN 230355Z AUTO 06008KT 9000 NCD M02/M03 Q1022 BLU
EBCV - Chievres Ab, Belgium
Afstand tot: ZO 59 km
Gewijzigd: 22-02-2018 17:55
Verouderd
Helder  
Helder  
   Wind: ONO 20.4 km/h
Wind: ONO 20.4 km/h
Temperatuur: 2°C
Voelt als: -3°C
Dauwpunt: -5°C
Vochtigheid: 60%
Barometer: 1020 hPa
Bewolking: Clear
Zicht: meer dan 10 km
Bewolking: Helder ft
EBCV 221655Z AUTO 06011KT 9999 NCD 02/M05 Q1020 BLU
EHFS - Vlissingen, Netherlands
Afstand tot: NNO 65 km
Gewijzigd: 23-02-2018 04:55
Helder  
Helder  
   Wind: ONO 18.5 km/h
Wind: ONO 18.5 km/h
Temperatuur: -1°C
Voelt als: -6°C
Dauwpunt: -3°C
Vochtigheid: 86%
Barometer: 1022 hPa
Bewolking: Clear
Zicht: 9 km
Bewolking: Helder ft
EHFS 230355Z AUTO 06010KT 9000 NCD M01/M03 Q1022 W///H///
EBBR - Brussels Nationa, Belgium
Afstand tot: O 91 km
Gewijzigd: 23-02-2018 04:50
Helder  
Helder  
   Wind: ONO 9.3 km/h
Wind: ONO 9.3 km/h
Temperatuur: -3°C
Voelt als: -7°C
Dauwpunt: -6°C
Vochtigheid: 80%
Barometer: 1021 hPa
Zicht: meer dan 10 km
Bewolking: Helder ft
EBBR 230350Z 07005KT CAVOK M03/M06 Q1021 NOSIG
EBAW - Antwerp/Deurne, Belgium
Afstand tot: ONO 94 km
Gewijzigd: 23-02-2018 04:50
Helder  
Helder  
   Wind: NO 13 km/h
Wind: NO 13 km/h
Temperatuur: -2°C
Voelt als: -7°C
Dauwpunt: -5°C
Vochtigheid: 80%
Barometer: 1022 hPa
Bewolking: Clear
Zicht: 9 km
Bewolking: Helder ft
EBAW 230350Z AUTO 05007KT 9000 // NCD M02/M05 Q1022
EHWO - Woensdrecht Rnla, Netherlands
Afstand tot: NO 98 km
Gewijzigd: 23-02-2018 04:55
Nevel, Helder  
Nevel, Helder  
   Wind: ONO 14.8 km/h
Wind: ONO 14.8 km/h
Temperatuur: -3°C
Voelt als: -8°C
Dauwpunt: -5°C
Vochtigheid: 86%
Barometer: 1022 hPa
Bewolking: Clear
Zicht: 7 km
Bewolking: Helder ft
EHWO 230355Z AUTO 07008KT 030V090 7000 BR NCD M03/M05 Q1022 WHT
EBCI - Charleroi/Gossel, Belgium
Afstand tot: OZO 102 km
Gewijzigd: 23-02-2018 04:50
Helder  
Helder  
   Wind: NO 18.5 km/h
Wind: NO 18.5 km/h
Temperatuur: -3°C
Voelt als: -9°C
Dauwpunt: -7°C
Vochtigheid: 74%
Barometer: 1019 hPa
Zicht: meer dan 10 km
Bewolking: Helder ft
EBCI 230350Z 05010KT CAVOK M03/M07 Q1019 NOSIG

Script ontwikkeld door  Saratoga-weather.org Aangepast voor de template door  Weerstation Leuven